»·PEaware :: AAL1994 KBOI-KSFO

AAL1994 :: KBOI-KSFO

FLIGHT INFORMATION

Flight Status: Arrived
Operator:
American Airlines
More flights by this operator :: More flights under this callsign
Pilot: Will K. (13011)
Aircraft: Unknown
(B788)
More flights by this aircraft type
Origin: KBOI Boise Air Terminal/Gowen
United States
Destination: KSFO San Francisco Intl
United States
More flights between these airports :: More routes between these airports
Route: +BOI3 BOI HYVAL REO HARTT LEGGS BDEGA2
File this flight plan on PilotEdge
Remarks:
Altitude:
(Current/Filed)
34,000ft
Speed:
(Current/Filed)
350kts
Departed: 30-Jun-18 06:05 PM
Arrived: 30-Jun-18 07:23 PM
Distance/Time
Traveled:
453nm/1:18
Distance/Time
To Go:
Arrived

Flight Plot

Page will automatically refresh every two minutes.

Flight plan parsing failed; only flown route is shown


Map Options




Map Legend


Flown Route
Filed Route
Departure Airport
Arrival Airport
Navaid (VOR, NDB)
Fix

Horizontal Profiles

Position Reports

Time Latitude Longitude Heading Altitude Ground
Speed
30-Jun-18 17:40 43.567610 -116.223544 24 2847ft 0kts
30-Jun-18 17:41 43.567610 -116.223544 24 2847ft 0kts
30-Jun-18 17:42 43.567610 -116.223544 24 2847ft 0kts
30-Jun-18 17:43 43.567610 -116.223544 24 2847ft 0kts
30-Jun-18 17:44 43.567610 -116.223544 24 2847ft 0kts
30-Jun-18 17:45 43.567610 -116.223544 24 2847ft 0kts
30-Jun-18 17:46 43.567610 -116.223544 24 2847ft 0kts
30-Jun-18 17:47 43.567610 -116.223544 24 2847ft 0kts
30-Jun-18 17:48 43.567610 -116.223544 24 2847ft 0kts
30-Jun-18 17:49 43.567610 -116.223544 24 2847ft 0kts
30-Jun-18 17:50 43.567610 -116.223544 24 2847ft 0kts
30-Jun-18 17:51 43.567610 -116.223544 24 2847ft 0kts
30-Jun-18 17:52 43.567183 -116.223796 21 2847ft 2kts
30-Jun-18 17:53 43.566977 -116.223902 20 2847ft 0kts
30-Jun-18 17:54 43.566979 -116.223901 20 2847ft 0kts
30-Jun-18 17:55 43.566982 -116.223899 20 2847ft 0kts
30-Jun-18 17:56 43.566985 -116.223898 20 2847ft 0kts
30-Jun-18 17:57 43.566887 -116.223143 135 2847ft 8kts
30-Jun-18 17:58 43.564677 -116.217152 114 2847ft 22kts
30-Jun-18 17:59 43.562064 -116.209482 115 2847ft 23kts
30-Jun-18 18:00 43.561027 -116.206458 115 2847ft 17kts
30-Jun-18 18:01 43.559459 -116.202491 164 2847ft 0kts
30-Jun-18 18:02 43.559456 -116.202490 164 2847ft 0kts
30-Jun-18 18:03 43.559453 -116.202489 164 2847ft 0kts
30-Jun-18 18:04 43.558879 -116.203691 292 2847ft 5kts
30-Jun-18 18:05 43.573071 -116.244040 298 3830ft 188kts
30-Jun-18 18:06 43.595076 -116.316719 291 6642ft 244kts
30-Jun-18 18:07 43.568648 -116.398173 214 9938ft 289kts
30-Jun-18 18:08 43.491790 -116.465013 218 12107ft 357kts
30-Jun-18 18:09 43.416966 -116.560029 227 15227ft 371kts
30-Jun-18 18:10 43.340806 -116.660725 227 18068ft 386kts
30-Jun-18 18:11 43.261580 -116.765080 227 20618ft 401kts
30-Jun-18 18:12 43.179738 -116.872441 227 22804ft 415kts
30-Jun-18 18:13 43.100950 -116.990257 235 24760ft 423kts
30-Jun-18 18:14 43.027678 -117.118487 235 26562ft 434kts
30-Jun-18 18:15 42.951931 -117.249687 235 28153ft 445kts
30-Jun-18 18:16 42.874246 -117.383738 235 29677ft 455kts
30-Jun-18 18:17 42.794573 -117.520594 235 31148ft 467kts
30-Jun-18 18:18 42.712652 -117.660634 235 32741ft 478kts
30-Jun-18 18:19 42.629874 -117.801453 236 34165ft 477kts
30-Jun-18 18:20 42.539543 -117.934167 227 34178ft 485kts
30-Jun-18 18:21 42.440532 -118.058885 228 34187ft 488kts
30-Jun-18 18:22 42.341144 -118.184543 227 34184ft 489kts
30-Jun-18 18:23 42.241385 -118.310086 227 34183ft 489kts
30-Jun-18 18:24 42.141809 -118.434853 227 34192ft 490kts
30-Jun-18 18:25 42.041856 -118.559528 227 34190ft 490kts
30-Jun-18 18:26 41.941691 -118.683903 227 34196ft 490kts
30-Jun-18 18:27 41.841491 -118.807759 227 34216ft 490kts
30-Jun-18 18:28 41.740706 -118.931788 227 34212ft 491kts
30-Jun-18 18:29 41.639897 -119.055293 227 34223ft 491kts
30-Jun-18 18:30 41.539093 -119.178248 227 34232ft 492kts
30-Jun-18 18:31 41.437795 -119.301265 227 34206ft 491kts
30-Jun-18 18:32 41.336479 -119.423758 227 34207ft 491kts
30-Jun-18 18:33 41.235157 -119.545697 226 34199ft 491kts
30-Jun-18 18:34 41.133815 -119.667150 226 34200ft 492kts
30-Jun-18 18:35 41.032163 -119.788473 226 34209ft 492kts
30-Jun-18 18:36 40.929975 -119.909881 226 34214ft 493kts
30-Jun-18 18:37 40.826582 -120.028839 218 34202ft 495kts
30-Jun-18 18:38 40.704660 -120.117043 213 34193ft 501kts
30-Jun-18 18:39 40.582645 -120.206613 213 34196ft 503kts
30-Jun-18 18:40 40.460234 -120.295612 213 34200ft 504kts
30-Jun-18 18:41 40.337161 -120.384731 213 34189ft 504kts
30-Jun-18 18:42 40.214279 -120.473349 213 34190ft 504kts
30-Jun-18 18:43 40.091120 -120.561796 213 34211ft 504kts
30-Jun-18 18:44 39.968095 -120.649791 212 34197ft 504kts
30-Jun-18 18:45 39.845109 -120.737365 212 34203ft 505kts
30-Jun-18 18:46 39.721094 -120.825341 212 34133ft 506kts
30-Jun-18 18:47 39.597443 -120.912677 212 34151ft 506kts
30-Jun-18 18:48 39.473812 -120.999651 212 34149ft 507kts
30-Jun-18 18:49 39.351711 -121.090949 221 34105ft 504kts
30-Jun-18 18:50 39.255739 -121.220301 235 34042ft 496kts
30-Jun-18 18:51 39.167174 -121.356412 233 33975ft 495kts
30-Jun-18 18:52 39.078472 -121.491719 233 33910ft 495kts
30-Jun-18 18:53 38.990581 -121.625084 233 32238ft 481kts
30-Jun-18 18:54 38.905126 -121.754253 233 30429ft 466kts
30-Jun-18 18:55 38.824533 -121.875603 234 29363ft 440kts
30-Jun-18 18:56 38.745915 -121.993523 233 27553ft 429kts
30-Jun-18 18:57 38.669258 -122.108090 233 25563ft 417kts
30-Jun-18 18:58 38.594808 -122.218967 233 24286ft 407kts
30-Jun-18 18:59 38.520795 -122.328826 232 24233ft 409kts
30-Jun-18 19:00 38.446299 -122.439124 232 24159ft 409kts
30-Jun-18 19:01 38.373405 -122.547392 232 22088ft 395kts
30-Jun-18 19:02 38.302749 -122.652066 232 19854ft 382kts
30-Jun-18 19:03 38.229611 -122.747624 205 19121ft 378kts
30-Jun-18 19:04 38.124565 -122.738486 166 18099ft 392kts
30-Jun-18 19:05 38.021434 -122.708172 167 15932ft 373kts
30-Jun-18 19:06 37.922868 -122.679956 166 13545ft 352kts
30-Jun-18 19:07 37.847647 -122.620713 133 13200ft 301kts
30-Jun-18 19:08 37.783916 -122.550849 138 12597ft 304kts
30-Jun-18 19:09 37.728181 -122.474337 113 11324ft 292kts
30-Jun-18 19:10 37.691998 -122.381475 113 11269ft 295kts
30-Jun-18 19:11 37.658035 -122.294703 113 10597ft 267kts
30-Jun-18 19:12 37.624436 -122.211741 113 9292ft 264kts
30-Jun-18 19:13 37.590509 -122.130092 113 8001ft 260kts
30-Jun-18 19:14 37.557601 -122.049690 113 6767ft 255kts
30-Jun-18 19:15 37.505143 -122.002577 197 5475ft 264kts
30-Jun-18 19:16 37.486181 -122.070287 293 4909ft 205kts
30-Jun-18 19:17 37.508993 -122.127490 303 4609ft 165kts
30-Jun-18 19:18 37.531577 -122.171898 303 3743ft 142kts
30-Jun-18 19:19 37.554098 -122.213037 299 2967ft 142kts
30-Jun-18 19:20 37.572914 -122.256814 295 2396ft 143kts
30-Jun-18 19:21 37.589928 -122.302084 299 1382ft 142kts
30-Jun-18 19:22 37.608140 -122.344123 296 347ft 132kts
30-Jun-18 19:23 37.621268 -122.375572 295 26ft 27kts
30-Jun-18 19:24 37.622261 -122.382111 266 26ft 19kts

Navigation Log

Ident Type
Flight plan parsing failed, navigation log unavailable